Flight Track Log - Related Links

Times and Time Zones

All times are in EDT time to prevent confusion due to time zone crossing. See the N59826 flight status page for this flight to view local times or setup timezone preferences in your user account.

Time Position Orientation Groundspeed Altitude Reporting Facility
EDT Latitude Longitude Course Direction KTS MPH feet Rate Location/Type
Fri 05:00:33 PM 64.6833 -148.1000 327° Northwest 100 115 3,800  Level Anchorage Center
Fri 05:01:00 PM 65.0611 -148.2500 308° West  Level FlightAware Approximate
Fri 05:01:33 PM 64.7000 -148.1500 308° West 130 150 4,300  Level Anchorage Center
Fri 05:02:00 PM 65.0966 -148.3129 327° Northwest  Level FlightAware Approximate
Fri 05:02:34 PM 64.7333 -148.1833 337° Northwest 130 150 4,700  Level Anchorage Center
Fri 05:03:00 PM 65.1339 -148.3709 327° Northwest  Level FlightAware Approximate
Fri 05:03:34 PM 64.7667 -148.2167 337° Northwest 120 138 5,300  Level Anchorage Center
Fri 05:04:00 PM 65.1713 -148.4290 327° Northwest  Level FlightAware Approximate
Fri 05:04:35 PM 64.8000 -148.2667 327° Northwest 120 138 5,800  Level Anchorage Center
Fri 05:05:00 PM 65.2086 -148.4873 327° Northwest  Level FlightAware Approximate
Fri 05:05:35 PM 64.8333 -148.3000 337° Northwest 120 138 6,200  Level Anchorage Center
Fri 05:06:35 PM 64.8500 -148.3333 320° Northwest 120 138 6,600 200 Climbing Anchorage Center
Fri 05:07:35 PM 64.8833 -148.3667 337° Northwest 150 173 6,600  Level Anchorage Center
Fri 05:08:35 PM 64.9333 -148.4167 337° Northwest 150 173 6,600  Level Anchorage Center
Fri 05:09:36 PM 64.9667 -148.4667 328° Northwest 150 173 6,600  Level Anchorage Center
Fri 05:10:36 PM 65.0000 -148.5167 328° Northwest 150 173 6,600  Level Anchorage Center
Fri 05:11:37 PM 65.0333 -148.5667 328° Northwest 150 173 6,600  Level Anchorage Center
Fri 05:12:37 PM 65.0667 -148.6333 320° Northwest 150 173 6,600  Level Anchorage Center
Fri 05:13:37 PM 65.1000 -148.6833 328° Northwest 160 184 6,600  Level Anchorage Center
Fri 05:14:38 PM 65.1333 -148.7333 328° Northwest 160 184 6,600  Level Anchorage Center
Fri 05:15:38 PM 65.1833 -148.8000 331° Northwest 150 173 6,600  Level Anchorage Center
Fri 05:16:38 PM 65.2167 -148.8333 337° Northwest 150 173 6,600  Level Anchorage Center
Fri 05:17:39 PM 65.2500 -148.9000 320° Northwest 150 173 6,600  Level Anchorage Center
Fri 05:18:39 PM 65.2833 -148.9500 328° Northwest 160 184 6,600  Level Anchorage Center
Fri 05:19:39 PM 65.3333 -149.0000 337° Northwest 160 184 6,600  Level Anchorage Center
Fri 05:20:40 PM 65.3667 -149.0667 320° Northwest 160 184 6,600  Level Anchorage Center
Fri 05:21:40 PM 65.4000 -149.1167 328° Northwest 160 184 6,600  Level Anchorage Center
Fri 05:22:40 PM 65.4500 -149.1833 331° Northwest 160 184 6,600  Level Anchorage Center
Fri 05:23:41 PM 65.4833 -149.2333 328° Northwest 150 173 6,600 298 Level Anchorage Center
Fri 05:24:41 PM 65.5167 -149.2667 337° Northwest 150 173 7,200 600 Climbing Anchorage Center
Fri 05:25:41 PM 65.5500 -149.2833 348° North 140 161 7,800 446 Climbing Anchorage Center
Fri 05:26:42 PM 65.6000 -149.2833 360° North 130 150 8,100 198 Climbing Anchorage Center
Fri 05:27:42 PM 65.6333 -149.3000 348° North 160 184 8,200  Climbing Anchorage Center
Fri 05:28:42 PM 65.6833 -149.3167 352° North 170 196 8,100 -50 Descending Anchorage Center
Fri 05:29:42 PM 65.7167 -149.3833 321° Northwest 160 184 8,100  Level Anchorage Center
Fri 05:32:00 PM 65.7569 -149.4512 325° Northwest  Level FlightAware Approximate
Fri 05:39:00 PM 65.9759 -149.8250 325° Northwest  Level FlightAware Approximate
Fri 05:40:00 PM 66.0071 -149.8789 325° Northwest  Level FlightAware Approximate
Fri 05:41:00 PM 66.0383 -149.9330 325° Northwest  Level FlightAware Approximate
Fri 05:42:00 PM 66.0695 -149.9872 325° Northwest  Level FlightAware Approximate
Fri 05:43:00 PM 66.1006 -150.0415 325° Northwest  Level FlightAware Approximate
Fri 05:44:00 PM 66.1318 -150.0960 325° Northwest  Level FlightAware Approximate
Fri 05:45:00 PM 66.1629 -150.1505 325° Northwest  Level FlightAware Approximate
Fri 05:46:00 PM 66.1940 -150.2053 325° Northwest  Level FlightAware Approximate
Fri 05:47:00 PM 66.2251 -150.2601 325° Northwest  Level FlightAware Approximate
Fri 05:48:00 PM 66.2561 -150.3151 325° Northwest  Level FlightAware Approximate
Fri 05:49:00 PM 66.2871 -150.3703 324° Northwest  Level FlightAware Approximate
Fri 05:50:00 PM 66.3182 -150.4255 324° Northwest  Level FlightAware Approximate
Fri 05:51:00 PM 66.3492 -150.4809 324° Northwest  Level FlightAware Approximate
Fri 05:52:00 PM 66.3801 -150.5365 324° Northwest  Level FlightAware Approximate
Fri 05:53:00 PM 66.4111 -150.5922 324° Northwest  Level FlightAware Approximate
Fri 05:54:00 PM 66.4420 -150.6480 324° Northwest  Level FlightAware Approximate
Fri 05:55:00 PM 66.4730 -150.7039 324° Northwest  Level FlightAware Approximate
Fri 05:56:00 PM 66.5039 -150.7600 324° Northwest  Level FlightAware Approximate
Fri 05:57:00 PM 66.5388 -150.8103 323° Northwest  Level FlightAware Approximate
Fri 05:58:00 PM 66.5694 -150.8677 323° Northwest  Level FlightAware Approximate
Fri 05:59:00 PM 66.5999 -150.9252 323° Northwest  Level FlightAware Approximate
Fri 06:00:00 PM 66.6304 -150.9829 323° Northwest  Level FlightAware Approximate
Fri 06:01:00 PM 66.6609 -151.0407 323° Northwest  Level FlightAware Approximate
Fri 06:02:00 PM 66.6913 -151.0991 322° Northwest  Level FlightAware Approximate
Fri 06:03:00 PM 66.7213 -151.1586 322° Northwest  Level FlightAware Approximate
Fri 06:04:00 PM 66.7513 -151.2184 322° Northwest  Level FlightAware Approximate
Fri 06:05:00 PM 66.7812 -151.2782 322° Northwest  Level FlightAware Approximate
Fri 06:06:00 PM 66.8112 -151.3383 322° Northwest  Level FlightAware Approximate
Fri 06:07:00 PM 66.8411 -151.3984 322° Northwest  Level FlightAware Approximate
Fri 06:08:00 PM 66.8710 -151.4587 322° Northwest  Level FlightAware Approximate
Fri 06:09:00 PM 66.9000 -151.5167 322° Northwest  Level FlightAware Approximate
Fri 06:10:00 PM 66.9139 -151.5291 322° Northwest  Level Estimated
Fri 06:11:00 PM 66.9139 -151.5291 322° Northwest  Level Estimated
Fri 06:12:00 PM 66.9139 -151.5291 322° Northwest  Level Estimated
Fri 06:13:00 PM 66.9139 -151.5291 322° Northwest  Level Estimated
Fri 06:14:00 PM 66.9139 -151.5291 322° Northwest  Level Estimated
Fri 06:15:00 PM 66.9139 -151.5291 322° Northwest  Level Estimated
Fri 06:16:00 PM 66.9139 -151.5291 322° Northwest  Level Estimated
Fri 06:17:00 PM 66.9139 -151.5291 322° Northwest  Level Estimated
Fri 06:18:00 PM 66.9139 -151.5291 322° Northwest  Level Estimated
Fri 06:19:00 PM 66.9139 -151.5291 322° Northwest  Level Estimated

Login

Don't have an account? Register now (free) for customized features, flight alerts, and more!